createdAt,value
2018-08-25T00:01:37.504Z,9.70
2018-08-25T00:04:06.891Z,9.70
2018-08-25T00:06:36.211Z,10.73
2018-08-25T00:09:08.521Z,10.97
2018-08-25T00:11:37.836Z,10.77
2018-08-25T00:14:07.164Z,12.07
2018-08-25T00:16:36.969Z,10.93
2018-08-25T00:19:06.333Z,11.80
2018-08-25T00:21:36.588Z,10.80
2018-08-25T00:24:05.926Z,10.43
2018-08-25T00:26:35.275Z,10.93
2018-08-25T00:29:04.707Z,11.40
2018-08-25T00:31:34.062Z,12.10
2018-08-25T00:34:03.442Z,15.90
2018-08-25T00:36:36.173Z,14.60
2018-08-25T00:39:09.145Z,13.27
2018-08-25T00:41:38.731Z,12.03
2018-08-25T00:44:08.098Z,11.83
2018-08-25T00:46:37.385Z,11.90
2018-08-25T00:49:06.763Z,12.43
2018-08-25T00:51:36.087Z,12.87
2018-08-25T00:54:05.398Z,12.70
2018-08-25T00:56:34.815Z,13.73
2018-08-25T00:59:04.114Z,14.07
2018-08-25T01:01:33.418Z,14.57
2018-08-25T01:04:02.762Z,14.23
2018-08-25T01:06:32.044Z,13.77
2018-08-25T01:09:01.433Z,13.50
2018-08-25T01:11:30.777Z,14.10
2018-08-25T01:14:00.137Z,13.77
2018-08-25T01:16:29.418Z,14.63
2018-08-25T01:18:58.747Z,15.13
2018-08-25T01:21:28.000Z,14.77
2018-08-25T01:23:57.371Z,15.00
2018-08-25T01:26:26.727Z,13.60
2018-08-25T01:28:56.073Z,14.17
2018-08-25T01:31:27.948Z,14.70
2018-08-25T01:33:58.350Z,14.30
2018-08-25T01:36:28.013Z,12.47
2018-08-25T01:38:57.488Z,12.40
2018-08-25T01:41:26.843Z,12.20
2018-08-25T01:43:56.183Z,11.27
2018-08-25T01:46:25.509Z,11.00
2018-08-25T01:48:55.093Z,10.70
2018-08-25T01:51:24.448Z,9.70
2018-08-25T01:53:53.794Z,9.50
2018-08-25T01:56:23.130Z,8.90
2018-08-25T01:58:52.592Z,8.67
2018-08-25T02:01:21.898Z,8.00
2018-08-25T02:03:51.211Z,8.20
2018-08-25T02:06:20.515Z,8.03
2018-08-25T02:08:49.852Z,8.70
2018-08-25T02:11:19.214Z,8.80
2018-08-25T02:13:48.568Z,8.93
2018-08-25T02:16:17.945Z,9.27
2018-08-25T02:18:47.271Z,8.47
2018-08-25T02:21:16.685Z,8.63
2018-08-25T02:23:45.973Z,8.63
2018-08-25T02:26:15.312Z,8.00
2018-08-25T02:28:45.580Z,8.33
2018-08-25T02:31:14.871Z,8.27
2018-08-25T02:33:44.219Z,8.20
2018-08-25T02:36:13.504Z,8.07
2018-08-25T02:38:42.770Z,7.50
2018-08-25T02:41:12.132Z,7.47
2018-08-25T02:43:41.434Z,7.73
2018-08-25T02:46:10.764Z,7.67
2018-08-25T02:48:40.077Z,7.47
2018-08-25T02:51:09.381Z,8.00
2018-08-25T02:53:38.783Z,8.00
2018-08-25T02:56:08.145Z,8.50
2018-08-25T02:58:37.458Z,8.50
2018-08-25T03:01:07.347Z,9.03
2018-08-25T03:03:36.648Z,9.57
2018-08-25T03:06:05.950Z,11.27
2018-08-25T03:08:35.271Z,10.73
2018-08-25T03:11:04.662Z,9.80
2018-08-25T03:13:34.016Z,9.57
2018-08-25T03:16:03.280Z,8.27
2018-08-25T03:18:32.735Z,10.20
2018-08-25T03:21:02.079Z,8.83
2018-08-25T03:23:31.462Z,9.93
2018-08-25T03:26:00.749Z,10.10
2018-08-25T03:28:30.051Z,9.03
2018-08-25T03:30:59.369Z,9.37
2018-08-25T03:33:28.660Z,8.23
2018-08-25T03:35:57.974Z,8.63
2018-08-25T03:38:27.328Z,9.60
2018-08-25T03:40:56.843Z,9.33
2018-08-25T03:43:26.146Z,8.00
2018-08-25T03:45:55.481Z,7.50
2018-08-25T03:48:24.827Z,7.70
2018-08-25T03:50:54.180Z,8.03
2018-08-25T03:53:23.793Z,7.47
2018-08-25T03:55:53.160Z,7.70
2018-08-25T03:58:24.545Z,7.73
2018-08-25T04:00:54.470Z,8.07
2018-08-25T04:03:26.900Z,8.93
2018-08-25T04:05:58.407Z,9.13
2018-08-25T04:08:29.015Z,9.10
2018-08-25T04:10:58.431Z,8.33
2018-08-25T04:13:28.864Z,9.07
2018-08-25T04:15:58.277Z,9.10
2018-08-25T04:18:27.978Z,8.70
2018-08-25T04:20:57.388Z,9.57
2018-08-25T04:23:26.767Z,9.60
2018-08-25T04:25:56.154Z,9.27
2018-08-25T04:28:25.485Z,8.23
2018-08-25T04:30:54.860Z,8.87
2018-08-25T04:33:24.159Z,8.60
2018-08-25T04:35:53.501Z,8.47
2018-08-25T04:38:22.811Z,8.77
2018-08-25T04:40:52.143Z,8.87
2018-08-25T04:43:21.477Z,9.87
2018-08-25T04:45:50.831Z,9.27
2018-08-25T04:48:20.227Z,10.20
2018-08-25T04:50:49.479Z,10.50
2018-08-25T04:53:18.880Z,10.93
2018-08-25T04:55:48.377Z,11.00
2018-08-25T04:58:17.721Z,10.80
2018-08-25T05:00:47.105Z,10.67
2018-08-25T05:03:16.433Z,11.83
2018-08-25T05:05:45.801Z,11.57
2018-08-25T05:08:15.151Z,12.70
2018-08-25T05:10:44.493Z,11.87
2018-08-25T05:13:13.791Z,12.30
2018-08-25T05:15:43.139Z,12.37
2018-08-25T05:18:12.402Z,12.17
2018-08-25T05:20:41.650Z,12.27
2018-08-25T05:23:11.088Z,11.37
2018-08-25T05:25:40.396Z,11.33
2018-08-25T05:28:09.741Z,11.73
2018-08-25T05:30:39.169Z,10.87
2018-08-25T05:33:08.479Z,11.00
2018-08-25T05:35:37.819Z,10.37
2018-08-25T05:38:07.214Z,10.20
2018-08-25T05:40:36.507Z,9.47
2018-08-25T05:43:05.916Z,9.73
2018-08-25T05:45:35.226Z,9.77
2018-08-25T05:48:04.512Z,8.70
2018-08-25T05:50:33.947Z,9.13
2018-08-25T05:53:03.390Z,8.93
2018-08-25T05:55:32.709Z,8.67
2018-08-25T05:58:01.960Z,8.93
2018-08-25T06:00:31.377Z,8.47
2018-08-25T06:03:00.679Z,8.20
2018-08-25T06:05:30.058Z,9.10
2018-08-25T06:07:59.350Z,9.00
2018-08-25T06:10:28.674Z,8.30
2018-08-25T06:12:58.040Z,8.10
2018-08-25T06:15:27.469Z,7.97
2018-08-25T06:17:56.817Z,8.37
2018-08-25T06:20:26.069Z,8.13
2018-08-25T06:22:55.581Z,8.53
2018-08-25T06:25:24.878Z,8.23
2018-08-25T06:27:54.204Z,8.70
2018-08-25T06:30:23.546Z,7.80
2018-08-25T06:32:52.821Z,8.67
2018-08-25T06:35:22.115Z,8.70
2018-08-25T06:37:51.509Z,8.10
2018-08-25T06:40:20.849Z,8.20
2018-08-25T06:42:50.510Z,8.40
2018-08-25T06:45:19.917Z,7.93
2018-08-25T06:47:49.975Z,8.50
2018-08-25T06:50:19.799Z,7.27
2018-08-25T06:52:49.698Z,7.92
2018-08-25T06:55:20.511Z,7.90
2018-08-25T06:57:51.174Z,7.80
2018-08-25T07:00:21.328Z,7.93
2018-08-25T07:02:51.494Z,7.77
2018-08-25T07:05:21.049Z,8.00
2018-08-25T07:07:51.020Z,8.10
2018-08-25T07:10:21.899Z,8.10
2018-08-25T07:12:51.321Z,8.53
2018-08-25T07:15:21.374Z,8.13
2018-08-25T07:17:51.191Z,7.93
2018-08-25T07:20:23.379Z,7.80
2018-08-25T07:22:53.433Z,8.53
2018-08-25T07:25:24.194Z,7.90
2018-08-25T07:27:54.049Z,7.80
2018-08-25T07:30:24.182Z,8.20
2018-08-25T07:32:54.598Z,8.57
2018-08-25T07:35:24.174Z,7.90
2018-08-25T07:37:53.712Z,7.77
2018-08-25T07:40:23.794Z,7.83
2018-08-25T07:42:55.671Z,8.60
2018-08-25T07:45:27.053Z,7.97
2018-08-25T07:47:56.353Z,8.20
2018-08-25T07:50:25.668Z,8.30
2018-08-25T07:52:55.026Z,8.67
2018-08-25T07:55:24.412Z,8.07
2018-08-25T07:57:53.658Z,8.70
2018-08-25T08:00:23.183Z,8.87
2018-08-25T08:02:52.643Z,8.17
2018-08-25T08:05:22.137Z,7.83
2018-08-25T08:07:51.526Z,8.13
2018-08-25T08:10:21.243Z,8.30
2018-08-25T08:12:50.642Z,8.60
2018-08-25T08:15:21.068Z,8.23
2018-08-25T08:17:54.963Z,8.10
2018-08-25T08:20:24.334Z,8.77
2018-08-25T08:22:53.748Z,8.83
2018-08-25T08:25:24.087Z,9.60
2018-08-25T08:27:53.508Z,8.57
2018-08-25T08:30:23.902Z,8.50
2018-08-25T08:32:53.490Z,8.47
2018-08-25T08:35:23.386Z,9.33
2018-08-25T08:37:53.029Z,8.60
2018-08-25T08:40:22.470Z,8.30
2018-08-25T08:42:51.798Z,9.20
2018-08-25T08:45:21.233Z,8.43
2018-08-25T08:47:50.710Z,8.30
2018-08-25T08:50:20.077Z,8.70
2018-08-25T08:52:49.706Z,8.33
2018-08-25T08:55:19.348Z,8.50
2018-08-25T08:57:48.796Z,8.10
2018-08-25T09:00:18.279Z,8.00
2018-08-25T09:02:47.780Z,7.92
2018-08-25T09:05:17.202Z,8.23
2018-08-25T09:07:46.586Z,8.40
2018-08-25T09:10:16.010Z,8.33
2018-08-25T09:12:45.406Z,8.17
2018-08-25T09:15:14.850Z,8.30
2018-08-25T09:17:44.246Z,8.00
2018-08-25T09:20:13.490Z,8.10
2018-08-25T09:22:43.014Z,8.03
2018-08-25T09:25:12.353Z,8.27
2018-08-25T09:27:41.679Z,7.73
2018-08-25T09:30:11.013Z,8.00
2018-08-25T09:32:40.348Z,7.73
2018-08-25T09:35:09.636Z,8.10
2018-08-25T09:37:38.932Z,8.07
2018-08-25T09:40:08.328Z,8.17
2018-08-25T09:42:37.671Z,9.27
2018-08-25T09:45:07.120Z,8.83
2018-08-25T09:47:36.738Z,8.40
2018-08-25T09:50:06.329Z,8.67
2018-08-25T09:52:36.208Z,8.53
2018-08-25T09:55:06.065Z,8.57
2018-08-25T09:57:35.371Z,8.93
2018-08-25T10:00:05.001Z,9.13
2018-08-25T10:02:34.577Z,8.90
2018-08-25T10:05:03.884Z,9.88
2018-08-25T10:07:37.668Z,9.20
2018-08-25T10:10:08.204Z,9.30
2018-08-25T10:12:42.294Z,9.30
2018-08-25T10:15:11.684Z,9.20
2018-08-25T10:17:41.463Z,10.10
2018-08-25T10:20:28.090Z,9.20
2018-08-25T10:23:14.797Z,9.90
2018-08-25T10:25:44.818Z,9.37
2018-08-25T10:28:14.200Z,9.43
2018-08-25T10:30:43.555Z,9.87
2018-08-25T10:33:12.924Z,10.23
2018-08-25T10:35:42.300Z,10.08
2018-08-25T10:38:11.641Z,9.90
2018-08-25T10:40:41.054Z,9.63
2018-08-25T10:43:10.394Z,9.70
2018-08-25T10:45:39.685Z,9.75
2018-08-25T10:48:09.196Z,9.68
2018-08-25T10:50:38.492Z,10.07
2018-08-25T10:53:07.874Z,9.20
2018-08-25T10:55:37.268Z,9.73
2018-08-25T10:58:06.654Z,10.13
2018-08-25T11:00:36.335Z,9.45
2018-08-25T11:03:05.690Z,9.10
2018-08-25T11:05:34.933Z,8.67
2018-08-25T11:08:04.311Z,9.00
2018-08-25T11:10:33.676Z,8.70
2018-08-25T11:13:03.054Z,9.53
2018-08-25T11:15:32.375Z,9.20
2018-08-25T11:18:03.995Z,9.20
2018-08-25T11:20:33.434Z,9.13
2018-08-25T11:23:02.846Z,9.07
2018-08-25T11:25:32.181Z,9.30
2018-08-25T11:28:01.512Z,10.20
2018-08-25T11:30:30.791Z,11.87
2018-08-25T11:33:02.094Z,10.57
2018-08-25T11:35:31.801Z,10.60
2018-08-25T11:38:03.074Z,12.63
2018-08-25T11:40:33.141Z,17.00
2018-08-25T11:43:02.584Z,12.93
2018-08-25T11:45:31.949Z,11.83
2018-08-25T11:48:01.329Z,11.45
2018-08-25T11:50:30.656Z,11.40
2018-08-25T11:52:59.976Z,11.93
2018-08-25T11:55:29.325Z,10.57
2018-08-25T11:57:58.643Z,11.73
2018-08-25T12:00:28.067Z,11.55
2018-08-25T12:02:57.667Z,10.90
2018-08-25T12:05:27.057Z,10.87
2018-08-25T12:07:57.579Z,10.57
2018-08-25T12:10:27.581Z,11.17
2018-08-25T12:12:57.045Z,10.40
2018-08-25T12:15:26.633Z,10.20
2018-08-25T12:17:56.023Z,9.20
2018-08-25T12:20:25.682Z,10.33
2018-08-25T12:22:55.271Z,10.67
2018-08-25T12:25:32.949Z,11.30
2018-08-25T12:28:03.479Z,9.47
2018-08-25T12:30:33.797Z,10.43
2018-08-25T12:33:05.067Z,9.93
2018-08-25T12:35:35.115Z,9.13
2018-08-25T12:38:05.119Z,9.63
2018-08-25T12:40:34.716Z,8.70
2018-08-25T12:43:04.501Z,9.50
2018-08-25T12:45:33.909Z,10.00
2018-08-25T12:48:03.452Z,10.32
2018-08-25T12:50:33.357Z,8.63
2018-08-25T12:53:03.195Z,10.00
2018-08-25T12:55:43.255Z,10.20
2018-08-25T12:58:13.048Z,8.83
2018-08-25T13:00:43.665Z,9.20
2018-08-25T13:03:13.735Z,8.90
2018-08-25T13:05:43.626Z,8.90
2018-08-25T13:08:13.369Z,8.70
2018-08-25T13:10:45.089Z,9.20
2018-08-25T13:13:15.372Z,9.28
2018-08-25T13:15:45.641Z,8.73
2018-08-25T13:18:16.555Z,9.73
2018-08-25T13:20:48.464Z,9.97
2018-08-25T13:23:20.638Z,8.88
2018-08-25T13:25:53.253Z,9.13
2018-08-25T13:28:23.266Z,8.25
2018-08-25T13:30:53.381Z,8.35
2018-08-25T13:33:23.425Z,8.30
2018-08-25T13:35:53.483Z,8.55
2018-08-25T13:38:23.609Z,8.40
2018-08-25T13:40:53.717Z,7.50
2018-08-25T13:43:23.792Z,7.58
2018-08-25T13:45:53.933Z,7.87
2018-08-25T13:48:23.951Z,7.30
2018-08-25T13:50:53.936Z,7.60
2018-08-25T13:53:23.698Z,7.20
2018-08-25T13:55:53.843Z,6.97
2018-08-25T13:58:23.955Z,8.15
2018-08-25T14:00:54.054Z,7.30
2018-08-25T14:03:23.893Z,7.55
2018-08-25T14:05:54.702Z,7.90
2018-08-25T14:08:25.010Z,8.00
2018-08-25T14:10:54.857Z,7.15
2018-08-25T14:13:24.739Z,7.50
2018-08-25T14:15:54.490Z,8.30
2018-08-25T14:18:24.484Z,8.40
2018-08-25T14:20:54.516Z,8.15
2018-08-25T14:23:24.483Z,7.92
2018-08-25T14:25:54.485Z,8.13
2018-08-25T14:28:24.310Z,7.78
2018-08-25T14:30:54.208Z,7.05
2018-08-25T14:33:24.073Z,8.28
2018-08-25T14:35:54.218Z,7.62
2018-08-25T14:38:24.373Z,8.88
2018-08-25T14:40:57.391Z,8.15
2018-08-25T14:43:27.420Z,7.30
2018-08-25T14:46:03.082Z,8.18
2018-08-25T14:48:33.745Z,7.87
2018-08-25T14:51:03.911Z,8.00
2018-08-25T14:53:34.162Z,8.08
2018-08-25T14:56:06.574Z,7.58
2018-08-25T14:58:36.757Z,8.63
2018-08-25T15:01:06.904Z,8.10
2018-08-25T15:03:37.226Z,7.40
2018-08-25T15:06:07.860Z,7.22
2018-08-25T15:08:38.125Z,8.10
2018-08-25T15:11:08.358Z,7.47
2018-08-25T15:13:38.488Z,7.22
2018-08-25T15:16:12.233Z,7.90
2018-08-25T15:18:42.372Z,7.87
2018-08-25T15:21:13.446Z,7.30
2018-08-25T15:23:43.467Z,7.55
2018-08-25T15:26:13.631Z,7.58
2018-08-25T15:28:43.724Z,7.53
2018-08-25T15:31:14.367Z,7.60
2018-08-25T15:33:43.909Z,8.33
2018-08-25T15:36:13.615Z,8.33
2018-08-25T15:38:43.719Z,7.72
2018-08-25T15:41:15.714Z,7.83
2018-08-25T15:43:45.972Z,7.80
2018-08-25T15:46:16.791Z,7.80
2018-08-25T15:48:46.544Z,8.03
2018-08-25T15:51:16.803Z,8.33
2018-08-25T15:53:46.984Z,8.17
2018-08-25T15:56:18.104Z,8.10
2018-08-25T15:58:52.359Z,8.30
2018-08-25T16:01:23.391Z,8.70
2018-08-25T16:03:53.582Z,8.67
2018-08-25T16:06:23.794Z,8.80
2018-08-25T16:08:54.042Z,9.17
2018-08-25T16:11:24.758Z,8.50
2018-08-25T16:13:54.938Z,8.70
2018-08-25T16:16:25.145Z,8.73
2018-08-25T16:18:55.499Z,8.87
2018-08-25T16:21:25.632Z,8.60
2018-08-25T16:23:55.881Z,8.90
2018-08-25T16:26:26.085Z,9.00
2018-08-25T16:28:56.572Z,9.30
2018-08-25T16:31:26.855Z,8.83
2018-08-25T16:34:01.723Z,9.17
2018-08-25T16:36:35.478Z,8.83
2018-08-25T16:39:06.762Z,8.20
2018-08-25T16:41:37.022Z,8.57
2018-08-25T16:44:07.187Z,12.10
2018-08-25T16:46:37.459Z,12.43
2018-08-25T16:49:07.656Z,12.70
2018-08-25T16:51:37.837Z,13.53
2018-08-25T16:54:08.073Z,13.40
2018-08-25T16:56:38.178Z,13.63
2018-08-25T16:59:08.462Z,13.53
2018-08-25T17:01:38.566Z,14.83
2018-08-25T17:04:09.018Z,13.33
2018-08-25T17:06:39.186Z,13.83
2018-08-25T17:09:11.676Z,14.03
2018-08-25T17:11:41.973Z,15.07
2018-08-25T17:14:12.224Z,15.20
2018-08-25T17:16:42.330Z,14.63
2018-08-25T17:19:12.540Z,15.23
2018-08-25T17:21:42.621Z,13.13
2018-08-25T17:24:13.086Z,14.63
2018-08-25T17:26:43.310Z,14.30
2018-08-25T17:29:13.702Z,14.47
2018-08-25T17:31:43.851Z,14.27
2018-08-25T17:34:14.075Z,13.53
2018-08-25T17:36:44.347Z,13.63
2018-08-25T17:39:14.521Z,13.90
2018-08-25T17:41:44.705Z,12.73
2018-08-25T17:44:14.892Z,12.93
2018-08-25T17:46:44.991Z,12.80
2018-08-25T17:49:15.169Z,13.60
2018-08-25T17:51:45.246Z,14.30
2018-08-25T17:54:15.379Z,13.80
2018-08-25T17:56:45.580Z,13.60
2018-08-25T17:59:15.791Z,14.63
2018-08-25T18:01:45.992Z,14.73
2018-08-25T18:04:16.159Z,15.43
2018-08-25T18:06:49.642Z,14.63
2018-08-25T18:09:19.983Z,14.17
2018-08-25T18:11:50.199Z,14.73
2018-08-25T18:14:21.409Z,14.30
2018-08-25T18:16:51.953Z,13.77
2018-08-25T18:19:22.102Z,14.47
2018-08-25T18:21:52.203Z,13.47
2018-08-25T18:24:22.381Z,14.00
2018-08-25T18:26:52.812Z,14.27
2018-08-25T18:29:23.022Z,13.23
2018-08-25T18:31:54.237Z,12.73
2018-08-25T18:34:24.541Z,12.50
2018-08-25T18:36:59.233Z,12.17
2018-08-25T18:39:35.225Z,13.67
2018-08-25T18:42:05.918Z,13.93
2018-08-25T18:44:38.951Z,12.90
2018-08-25T18:47:09.715Z,13.97
2018-08-25T18:49:39.961Z,13.10
2018-08-25T18:52:10.116Z,13.97
2018-08-25T18:54:41.737Z,15.17
2018-08-25T18:57:12.424Z,14.67
2018-08-25T18:59:42.774Z,13.20
2018-08-25T19:02:17.406Z,13.43
2018-08-25T19:04:48.100Z,14.03
2018-08-25T19:07:18.801Z,14.13
2018-08-25T19:09:50.874Z,13.60
2018-08-25T19:12:21.119Z,15.07
2018-08-25T19:14:51.375Z,15.00
2018-08-25T19:17:21.577Z,15.20
2018-08-25T19:19:52.648Z,14.80
2018-08-25T19:22:23.586Z,13.37
2018-08-25T19:24:53.850Z,13.53
2018-08-25T19:27:24.904Z,14.40
2018-08-25T19:29:55.148Z,14.00
2018-08-25T19:32:25.248Z,14.07
2018-08-25T19:34:55.784Z,14.43
2018-08-25T19:37:25.964Z,13.67
2018-08-25T19:39:56.408Z,14.13
2018-08-25T19:42:26.498Z,14.03
2018-08-25T19:44:57.393Z,13.00
2018-08-25T19:47:28.416Z,13.27
2018-08-25T19:49:58.561Z,12.97
2018-08-25T19:52:28.878Z,13.27
2018-08-25T19:54:59.083Z,12.70
2018-08-25T19:57:29.815Z,13.30
2018-08-25T20:00:00.030Z,12.50
2018-08-25T20:02:30.216Z,13.37
2018-08-25T20:05:00.428Z,12.90
2018-08-25T20:07:30.601Z,12.63
2018-08-25T20:10:00.710Z,12.83
2018-08-25T20:12:31.729Z,12.80
2018-08-25T20:15:01.983Z,12.47
2018-08-25T20:17:32.213Z,12.60
2018-08-25T20:20:02.454Z,12.80
2018-08-25T20:22:33.230Z,12.27
2018-08-25T20:25:05.177Z,12.60
2018-08-25T20:27:35.376Z,12.93
2018-08-25T20:30:06.137Z,12.37
2018-08-25T20:32:36.340Z,12.67
2018-08-25T20:35:08.568Z,11.60
2018-08-25T20:37:38.743Z,12.30
2018-08-25T20:40:08.984Z,11.83
2018-08-25T20:42:39.078Z,11.77
2018-08-25T20:45:09.490Z,12.73
2018-08-25T20:47:39.672Z,13.07
2018-08-25T20:50:09.958Z,12.40
2018-08-25T20:52:40.000Z,11.87
2018-08-25T20:55:11.108Z,11.87
2018-08-25T20:57:41.256Z,10.27
2018-08-25T21:00:11.454Z,10.97
2018-08-25T21:02:41.442Z,11.00
2018-08-25T21:05:11.478Z,10.80
2018-08-25T21:07:41.369Z,10.60
2018-08-25T21:10:11.441Z,10.77
2018-08-25T21:12:41.445Z,10.10
2018-08-25T21:15:11.159Z,10.00
2018-08-25T21:17:40.944Z,9.70
2018-08-25T21:20:10.588Z,9.57
2018-08-25T21:22:40.320Z,9.73
2018-08-25T21:25:09.865Z,9.17
2018-08-25T21:27:39.432Z,10.53
2018-08-25T21:30:10.123Z,9.40
2018-08-25T21:32:39.665Z,9.70
2018-08-25T21:35:09.412Z,9.47
2018-08-25T21:37:38.932Z,9.20
2018-08-25T21:40:08.348Z,8.77
2018-08-25T21:42:37.634Z,8.40
2018-08-25T21:45:06.954Z,8.40
2018-08-25T21:47:37.877Z,8.03
2018-08-25T21:50:07.430Z,8.10
2018-08-25T21:52:36.744Z,8.77
2018-08-25T21:55:06.050Z,8.10
2018-08-25T21:57:35.363Z,8.50
2018-08-25T22:00:05.667Z,8.17
2018-08-25T22:02:35.039Z,8.00
2018-08-25T22:05:04.325Z,7.03
2018-08-25T22:07:33.590Z,3.77
2018-08-25T22:10:02.978Z,3.37
2018-08-25T22:12:32.354Z,2.97
2018-08-25T22:15:01.656Z,2.80
2018-08-25T22:17:30.996Z,3.67
2018-08-25T22:20:00.315Z,3.90
2018-08-25T22:22:29.653Z,2.27
2018-08-25T22:24:58.994Z,1.33
2018-08-25T22:27:28.350Z,1.67
2018-08-25T22:29:57.645Z,1.50
2018-08-25T22:32:26.977Z,1.07
2018-08-25T22:34:56.415Z,1.17
2018-08-25T22:37:25.704Z,1.77
2018-08-25T22:39:55.047Z,1.50
2018-08-25T22:42:24.315Z,1.60
2018-08-25T22:44:54.616Z,1.40
2018-08-25T22:47:23.960Z,1.63
2018-08-25T22:49:53.259Z,1.90
2018-08-25T22:52:27.769Z,2.17
2018-08-25T22:54:58.986Z,2.20
2018-08-25T22:57:28.274Z,1.80
2018-08-25T22:59:57.599Z,2.10
2018-08-25T23:02:31.373Z,2.07
2018-08-25T23:05:01.357Z,1.93
2018-08-25T23:07:30.837Z,2.00
2018-08-25T23:10:00.140Z,2.00
2018-08-25T23:12:29.481Z,2.20
2018-08-25T23:14:58.793Z,2.30
2018-08-25T23:17:28.304Z,2.50
2018-08-25T23:19:57.724Z,2.37
2018-08-25T23:22:27.345Z,2.20
2018-08-25T23:24:56.715Z,2.60
2018-08-25T23:27:26.466Z,2.37
2018-08-25T23:29:55.773Z,2.40
2018-08-25T23:32:25.734Z,2.20
2018-08-25T23:34:55.172Z,2.33
2018-08-25T23:37:24.555Z,1.80
2018-08-25T23:39:53.873Z,1.70
2018-08-25T23:42:23.213Z,1.43
2018-08-25T23:44:52.556Z,1.23
2018-08-25T23:47:21.891Z,1.70
2018-08-25T23:49:51.324Z,1.40
2018-08-25T23:52:20.598Z,1.20
2018-08-25T23:54:49.918Z,1.10
2018-08-25T23:57:19.212Z,0.90
2018-08-25T23:59:48.525Z,1.10
